EZY74MV LFMN-EGGD
Flight info
| Callsign | EZY74MV |
|---|---|
| Flight time | 1h 44m |
| Altitude | 34000 |
| Route | BADOD DCT NEDRU DCT LTP DCT BULOL DCT IDAVO DCT BAGBI DCT SIZZA/N0441F380 DCT LAULY DCT BRY DCT CLM DCT KOPOR DCT KESAX DCT KUNAV T421 ICTAM |
| Aircraft | A320/M-SDE2E3FGHIJ1RWXYZ/LB1 |
Departure
| Time | 2026-05-07 17:23 |
|---|---|
| Airport | Nice-Côte d'Azur Airport (LFMN) |
Arrival
| Time | 2026-05-07 19:08 |
|---|---|
| Airport | Bristol Airport (EGGD) |
| Time | Latitude | Longitude | Altitude | Speed | Heading |
|---|---|---|---|---|---|
| 2026-05-07 16:30 | 43.65665 | 7.20325 | 21 ft | 0 kts | 315° |
| 2026-05-07 17:13 | 43.65663 | 7.20327 | 21 ft | 3 kts | 315° |
| 2026-05-07 17:14 | 43.65652 | 7.20342 | 21 ft | 3 kts | 312° |
| 2026-05-07 17:14 | 43.65637 | 7.20366 | 21 ft | 3 kts | 307° |
| 2026-05-07 17:14 | 43.65625 | 7.20392 | 21 ft | 3 kts | 297° |
| 2026-05-07 17:14 | 43.65617 | 7.20419 | 21 ft | 3 kts | 270° |
| 2026-05-07 17:15 | 43.65621 | 7.20441 | 21 ft | 1 kts | 224° |
| 2026-05-07 17:15 | 43.65624 | 7.20445 | 21 ft | 0 kts | 224° |
| 2026-05-07 17:18 | 43.65614 | 7.20432 | 21 ft | 4 kts | 224° |
| 2026-05-07 17:18 | 43.65600 | 7.20414 | 21 ft | 4 kts | 224° |
| 2026-05-07 17:19 | 43.65579 | 7.20385 | 21 ft | 5 kts | 225° |
| 2026-05-07 17:19 | 43.65557 | 7.20355 | 21 ft | 4 kts | 225° |
| 2026-05-07 17:19 | 43.65533 | 7.20322 | 21 ft | 7 kts | 225° |
| 2026-05-07 17:19 | 43.65488 | 7.20260 | 21 ft | 12 kts | 225° |
| 2026-05-07 17:20 | 43.65417 | 7.20178 | 21 ft | 15 kts | 199° |
| 2026-05-07 17:20 | 43.65318 | 7.20238 | 21 ft | 18 kts | 135° |
| 2026-05-07 17:20 | 43.65223 | 7.20367 | 21 ft | 20 kts | 136° |
| 2026-05-07 17:20 | 43.65138 | 7.20483 | 21 ft | 15 kts | 135° |
| 2026-05-07 17:21 | 43.65083 | 7.20558 | 21 ft | 7 kts | 135° |
| 2026-05-07 17:21 | 43.65042 | 7.20614 | 22 ft | 9 kts | 135° |
| 2026-05-07 17:21 | 43.64997 | 7.20676 | 23 ft | 7 kts | 109° |
| 2026-05-07 17:21 | 43.65011 | 7.20714 | 24 ft | 0 kts | 44° |
| 2026-05-07 17:22 | 43.65019 | 7.20724 | 24 ft | 9 kts | 44° |
| 2026-05-07 17:22 | 43.65230 | 7.21016 | 22 ft | 81 kts | 45° |
| 2026-05-07 17:22 | 43.65778 | 7.21771 | 22 ft | 140 kts | 45° |
| 2026-05-07 17:23 | 43.66557 | 7.22850 | 311 ft | 163 kts | 47° |
| 2026-05-07 17:23 | 43.67248 | 7.24076 | 971 ft | 167 kts | 76° |
| 2026-05-07 17:23 | 43.67069 | 7.25620 | 1607 ft | 168 kts | 130° |
| 2026-05-07 17:23 | 43.66230 | 7.26767 | 2289 ft | 171 kts | 141° |
| 2026-05-07 17:24 | 43.65301 | 7.27780 | 2980 ft | 169 kts | 143° |
| 2026-05-07 17:24 | 43.64349 | 7.28811 | 3403 ft | 185 kts | 142° |
| 2026-05-07 17:24 | 43.63280 | 7.30006 | 3652 ft | 209 kts | 142° |
| 2026-05-07 17:24 | 43.62138 | 7.31334 | 4114 ft | 218 kts | 144° |
| 2026-05-07 17:25 | 43.60760 | 7.32188 | 4657 ft | 223 kts | 176° |
| 2026-05-07 17:25 | 43.59262 | 7.31705 | 5333 ft | 224 kts | 207° |
| 2026-05-07 17:25 | 43.57904 | 7.30627 | 6102 ft | 225 kts | 213° |
| 2026-05-07 17:25 | 43.56596 | 7.29428 | 6820 ft | 228 kts | 215° |
| 2026-05-07 17:26 | 43.55404 | 7.27971 | 7473 ft | 232 kts | 237° |
| 2026-05-07 17:26 | 43.54832 | 7.25904 | 8171 ft | 234 kts | 263° |
| 2026-05-07 17:26 | 43.55000 | 7.23675 | 8851 ft | 238 kts | 291° |
| 2026-05-07 17:26 | 43.55883 | 7.21744 | 9596 ft | 240 kts | 308° |
| 2026-05-07 17:27 | 43.56919 | 7.19919 | 10292 ft | 243 kts | 308° |
| 2026-05-07 17:27 | 43.57968 | 7.18080 | 10959 ft | 245 kts | 307° |
| 2026-05-07 17:27 | 43.59025 | 7.16233 | 11668 ft | 247 kts | 306° |
| 2026-05-07 17:27 | 43.60092 | 7.14365 | 12379 ft | 249 kts | 307° |
| 2026-05-07 17:28 | 43.61224 | 7.12531 | 13042 ft | 254 kts | 315° |
| 2026-05-07 17:28 | 43.62625 | 7.10884 | 13327 ft | 276 kts | 319° |
| 2026-05-07 17:28 | 43.64170 | 7.09123 | 13542 ft | 299 kts | 319° |
| 2026-05-07 17:28 | 43.65839 | 7.07228 | 13733 ft | 322 kts | 318° |
| 2026-05-07 17:29 | 43.67624 | 7.05200 | 13988 ft | 340 kts | 319° |
| 2026-05-07 17:29 | 43.69446 | 7.03127 | 14528 ft | 346 kts | 318° |
| 2026-05-07 17:29 | 43.71334 | 7.00974 | 15176 ft | 349 kts | 319° |
| 2026-05-07 17:29 | 43.73217 | 6.98825 | 15832 ft | 353 kts | 319° |
| 2026-05-07 17:30 | 43.75116 | 6.96653 | 16469 ft | 356 kts | 319° |
| 2026-05-07 17:30 | 43.77008 | 6.94487 | 17095 ft | 359 kts | 319° |
| 2026-05-07 17:30 | 43.78964 | 6.92240 | 17764 ft | 362 kts | 319° |
| 2026-05-07 17:30 | 43.80880 | 6.90035 | 18378 ft | 365 kts | 318° |
| 2026-05-07 17:31 | 43.82844 | 6.87773 | 18934 ft | 368 kts | 318° |
| 2026-05-07 17:31 | 43.84816 | 6.85501 | 19488 ft | 370 kts | 318° |
| 2026-05-07 17:31 | 43.86804 | 6.83212 | 20024 ft | 373 kts | 318° |
| 2026-05-07 17:31 | 43.88807 | 6.80904 | 20560 ft | 376 kts | 317° |
| 2026-05-07 17:32 | 43.90824 | 6.78580 | 21106 ft | 378 kts | 318° |
| 2026-05-07 17:32 | 43.92851 | 6.76241 | 21625 ft | 380 kts | 317° |
| 2026-05-07 17:32 | 43.95001 | 6.74064 | 22147 ft | 385 kts | 326° |
| 2026-05-07 17:32 | 43.97329 | 6.72193 | 22673 ft | 388 kts | 327° |
| 2026-05-07 17:33 | 43.99672 | 6.70320 | 23203 ft | 390 kts | 326° |
| 2026-05-07 17:33 | 44.02034 | 6.68430 | 23687 ft | 393 kts | 326° |
| 2026-05-07 17:33 | 44.04405 | 6.66526 | 24111 ft | 395 kts | 326° |
| 2026-05-07 17:33 | 44.06789 | 6.64612 | 24529 ft | 397 kts | 326° |
| 2026-05-07 17:34 | 44.09189 | 6.62687 | 24949 ft | 399 kts | 326° |
| 2026-05-07 17:34 | 44.11606 | 6.60747 | 25390 ft | 401 kts | 325° |
| 2026-05-07 17:34 | 44.14029 | 6.58797 | 25770 ft | 404 kts | 325° |
| 2026-05-07 17:34 | 44.16467 | 6.56832 | 26144 ft | 406 kts | 325° |
| 2026-05-07 17:35 | 44.18918 | 6.54853 | 26505 ft | 408 kts | 325° |
| 2026-05-07 17:35 | 44.21383 | 6.52861 | 26892 ft | 411 kts | 324° |
| 2026-05-07 17:35 | 44.23864 | 6.50853 | 27298 ft | 413 kts | 325° |
| 2026-05-07 17:35 | 44.26357 | 6.48835 | 27679 ft | 416 kts | 325° |
| 2026-05-07 17:36 | 44.28866 | 6.46801 | 28068 ft | 418 kts | 324° |
| 2026-05-07 17:36 | 44.31385 | 6.44755 | 28449 ft | 421 kts | 324° |
| 2026-05-07 17:36 | 44.33925 | 6.42686 | 28820 ft | 423 kts | 324° |
| 2026-05-07 17:36 | 44.36477 | 6.40607 | 29199 ft | 426 kts | 324° |
| 2026-05-07 17:37 | 44.39043 | 6.38515 | 29577 ft | 428 kts | 324° |
| 2026-05-07 17:37 | 44.41625 | 6.36410 | 29950 ft | 431 kts | 324° |
| 2026-05-07 17:37 | 44.44222 | 6.34295 | 30256 ft | 433 kts | 324° |
| 2026-05-07 17:37 | 44.46824 | 6.32177 | 30538 ft | 434 kts | 324° |
| 2026-05-07 17:38 | 44.49438 | 6.30045 | 30818 ft | 436 kts | 324° |
| 2026-05-07 17:38 | 44.52063 | 6.27899 | 31087 ft | 437 kts | 324° |
| 2026-05-07 17:38 | 44.54690 | 6.25747 | 31373 ft | 438 kts | 323° |
| 2026-05-07 17:38 | 44.57319 | 6.23590 | 31763 ft | 437 kts | 324° |
| 2026-05-07 17:39 | 44.59939 | 6.21435 | 32168 ft | 436 kts | 323° |
| 2026-05-07 17:39 | 44.62554 | 6.19283 | 32531 ft | 435 kts | 323° |
| 2026-05-07 17:39 | 44.65162 | 6.17137 | 32912 ft | 434 kts | 323° |
| 2026-05-07 17:39 | 44.67732 | 6.15024 | 33284 ft | 433 kts | 323° |
| 2026-05-07 17:40 | 44.70363 | 6.12860 | 33679 ft | 432 kts | 323° |
| 2026-05-07 17:40 | 44.72919 | 6.10751 | 34057 ft | 431 kts | 323° |
| 2026-05-07 17:40 | 44.75504 | 6.08610 | 34364 ft | 431 kts | 323° |
| 2026-05-07 17:40 | 44.78126 | 6.06437 | 34617 ft | 433 kts | 323° |
| 2026-05-07 17:41 | 44.80690 | 6.04313 | 34920 ft | 433 kts | 323° |
| 2026-05-07 17:41 | 44.83285 | 6.02164 | 35169 ft | 433 kts | 323° |
| 2026-05-07 17:41 | 44.85883 | 6.00010 | 35437 ft | 432 kts | 323° |
| 2026-05-07 17:41 | 44.88462 | 5.97867 | 35678 ft | 431 kts | 323° |
| 2026-05-07 17:42 | 44.91049 | 5.95711 | 35888 ft | 432 kts | 323° |
| 2026-05-07 17:42 | 44.93629 | 5.93559 | 35969 ft | 429 kts | 323° |
| 2026-05-07 17:42 | 44.98775 | 5.89265 | 35968 ft | 430 kts | 323° |
| 2026-05-07 17:43 | 45.03928 | 5.84968 | 35979 ft | 430 kts | 323° |
| 2026-05-07 17:43 | 45.09060 | 5.80644 | 35976 ft | 428 kts | 323° |
| 2026-05-07 17:44 | 45.14074 | 5.76110 | 35980 ft | 427 kts | 321° |
| 2026-05-07 17:44 | 45.19030 | 5.71474 | 35974 ft | 427 kts | 321° |
| 2026-05-07 17:45 | 45.23970 | 5.66889 | 35974 ft | 428 kts | 321° |
| 2026-05-07 17:45 | 45.28968 | 5.62305 | 35981 ft | 428 kts | 322° |
| 2026-05-07 17:46 | 45.33966 | 5.57717 | 35977 ft | 428 kts | 322° |
| 2026-05-07 17:46 | 45.38960 | 5.53118 | 35976 ft | 428 kts | 322° |
| 2026-05-07 17:47 | 45.43944 | 5.48502 | 35971 ft | 427 kts | 322° |
| 2026-05-07 17:47 | 45.48963 | 5.43956 | 35996 ft | 430 kts | 327° |
| 2026-05-07 17:48 | 45.54462 | 5.40459 | 35980 ft | 433 kts | 332° |
| 2026-05-07 17:48 | 45.59990 | 5.37045 | 35978 ft | 433 kts | 332° |
| 2026-05-07 17:49 | 45.65522 | 5.33618 | 35988 ft | 433 kts | 331° |
| 2026-05-07 17:49 | 45.71044 | 5.30181 | 35981 ft | 433 kts | 331° |
| 2026-05-07 17:50 | 45.76566 | 5.26745 | 35979 ft | 432 kts | 332° |
| 2026-05-07 17:50 | 45.82080 | 5.23310 | 35978 ft | 432 kts | 331° |
| 2026-05-07 17:51 | 45.87589 | 5.19864 | 35994 ft | 432 kts | 331° |
| 2026-05-07 17:51 | 45.93087 | 5.16413 | 36000 ft | 431 kts | 331° |
| 2026-05-07 17:52 | 45.98575 | 5.12970 | 36004 ft | 430 kts | 332° |
| 2026-05-07 17:52 | 46.04061 | 5.09520 | 36008 ft | 430 kts | 331° |
| 2026-05-07 17:53 | 46.09541 | 5.06055 | 36019 ft | 430 kts | 331° |
| 2026-05-07 17:53 | 46.15005 | 5.02569 | 36016 ft | 429 kts | 331° |
| 2026-05-07 17:54 | 46.20463 | 4.99083 | 36009 ft | 429 kts | 331° |
| 2026-05-07 17:54 | 46.25921 | 4.95587 | 36008 ft | 429 kts | 331° |
| 2026-05-07 17:55 | 46.31351 | 4.92108 | 36018 ft | 428 kts | 331° |
| 2026-05-07 17:55 | 46.36820 | 4.88596 | 36010 ft | 428 kts | 331° |
| 2026-05-07 17:56 | 46.42263 | 4.85093 | 36006 ft | 428 kts | 331° |
| 2026-05-07 17:56 | 46.47698 | 4.81592 | 36026 ft | 428 kts | 332° |
| 2026-05-07 17:57 | 46.52224 | 4.78671 | 36016 ft | 428 kts | 332° |
| 2026-05-07 17:57 | 46.58581 | 4.74554 | 36005 ft | 428 kts | 332° |
| 2026-05-07 17:58 | 46.64021 | 4.71020 | 36001 ft | 428 kts | 331° |
| 2026-05-07 17:58 | 46.69459 | 4.67492 | 36001 ft | 428 kts | 332° |
| 2026-05-07 17:59 | 46.74865 | 4.63975 | 35997 ft | 428 kts | 331° |
| 2026-05-07 17:59 | 46.80300 | 4.60414 | 36002 ft | 428 kts | 331° |
| 2026-05-07 18:00 | 46.85742 | 4.56862 | 36001 ft | 428 kts | 332° |
| 2026-05-07 18:00 | 46.91187 | 4.53333 | 36002 ft | 428 kts | 332° |
| 2026-05-07 18:01 | 46.96637 | 4.49791 | 36004 ft | 428 kts | 332° |
| 2026-05-07 18:01 | 47.02081 | 4.46233 | 36001 ft | 429 kts | 332° |
| 2026-05-07 18:02 | 47.10247 | 4.40871 | 36015 ft | 429 kts | 332° |
| 2026-05-07 18:03 | 47.14779 | 4.37899 | 36010 ft | 429 kts | 332° |
| 2026-05-07 18:03 | 47.20230 | 4.34322 | 36006 ft | 429 kts | 332° |
| 2026-05-07 18:04 | 47.25675 | 4.30729 | 36005 ft | 429 kts | 332° |
| 2026-05-07 18:04 | 47.31124 | 4.27127 | 36022 ft | 429 kts | 332° |
| 2026-05-07 18:05 | 47.36574 | 4.23520 | 36014 ft | 429 kts | 332° |
| 2026-05-07 18:05 | 47.42025 | 4.19899 | 36013 ft | 430 kts | 332° |
| 2026-05-07 18:06 | 47.47471 | 4.16268 | 36016 ft | 430 kts | 332° |
| 2026-05-07 18:06 | 47.52919 | 4.12624 | 36025 ft | 430 kts | 332° |
| 2026-05-07 18:07 | 47.58372 | 4.08976 | 36018 ft | 430 kts | 332° |
| 2026-05-07 18:07 | 47.63792 | 4.05354 | 36015 ft | 430 kts | 332° |
| 2026-05-07 18:08 | 47.69250 | 4.01688 | 36017 ft | 430 kts | 332° |
| 2026-05-07 18:08 | 47.74704 | 3.98019 | 36030 ft | 430 kts | 332° |
| 2026-05-07 18:09 | 47.80164 | 3.94358 | 36030 ft | 430 kts | 332° |
| 2026-05-07 18:09 | 47.85619 | 3.90693 | 36026 ft | 430 kts | 332° |
| 2026-05-07 18:10 | 47.91069 | 3.87003 | 36028 ft | 430 kts | 332° |
| 2026-05-07 18:10 | 47.96517 | 3.83305 | 36036 ft | 430 kts | 332° |
| 2026-05-07 18:11 | 48.01958 | 3.79603 | 36041 ft | 430 kts | 332° |
| 2026-05-07 18:11 | 48.07399 | 3.75899 | 36041 ft | 430 kts | 332° |
| 2026-05-07 18:12 | 48.12831 | 3.72183 | 36032 ft | 429 kts | 330° |
| 2026-05-07 18:12 | 48.17632 | 3.67098 | 36043 ft | 420 kts | 311° |
| 2026-05-07 18:13 | 48.21590 | 3.60676 | 36036 ft | 419 kts | 310° |
| 2026-05-07 18:13 | 48.25551 | 3.54251 | 36033 ft | 420 kts | 310° |
| 2026-05-07 18:14 | 48.29507 | 3.47808 | 36033 ft | 420 kts | 310° |
| 2026-05-07 18:14 | 48.33461 | 3.41359 | 36033 ft | 420 kts | 310° |
| 2026-05-07 18:15 | 48.37411 | 3.34887 | 36034 ft | 420 kts | 309° |
| 2026-05-07 18:15 | 48.41818 | 3.29101 | 36037 ft | 426 kts | 326° |
| 2026-05-07 18:16 | 48.47213 | 3.25311 | 36032 ft | 429 kts | 334° |
| 2026-05-07 18:16 | 48.52718 | 3.21808 | 36032 ft | 430 kts | 334° |
| 2026-05-07 18:17 | 48.58188 | 3.18311 | 36033 ft | 430 kts | 334° |
| 2026-05-07 18:17 | 48.63699 | 3.14782 | 36045 ft | 430 kts | 334° |
| 2026-05-07 18:18 | 48.69202 | 3.11240 | 36035 ft | 430 kts | 334° |
| 2026-05-07 18:18 | 48.74714 | 3.07683 | 36034 ft | 430 kts | 334° |
| 2026-05-07 18:19 | 48.80220 | 3.04122 | 36032 ft | 431 kts | 334° |
| 2026-05-07 18:19 | 48.85659 | 3.00357 | 36034 ft | 428 kts | 327° |
| 2026-05-07 18:20 | 48.90832 | 2.95858 | 36031 ft | 428 kts | 327° |
| 2026-05-07 18:20 | 48.95991 | 2.91320 | 36033 ft | 428 kts | 327° |
| 2026-05-07 18:21 | 49.01151 | 2.86782 | 36032 ft | 428 kts | 327° |
| 2026-05-07 18:21 | 49.06307 | 2.82247 | 35177 ft | 427 kts | 329° |
| 2026-05-07 18:21 | 49.08882 | 2.79985 | 36079 ft | 430 kts | 327° |
| 2026-05-07 18:22 | 49.11471 | 2.77705 | 36051 ft | 429 kts | 327° |
| 2026-05-07 18:22 | 49.16649 | 2.73134 | 36054 ft | 430 kts | 327° |
| 2026-05-07 18:23 | 49.21826 | 2.68552 | 36054 ft | 430 kts | 327° |
| 2026-05-07 18:23 | 49.27007 | 2.63959 | 36051 ft | 430 kts | 327° |
| 2026-05-07 18:24 | 49.32116 | 2.59415 | 36048 ft | 430 kts | 327° |
| 2026-05-07 18:24 | 49.37349 | 2.54739 | 36045 ft | 430 kts | 327° |
| 2026-05-07 18:25 | 49.42515 | 2.50123 | 36048 ft | 430 kts | 327° |
| 2026-05-07 18:25 | 49.47682 | 2.45496 | 36047 ft | 430 kts | 327° |
| 2026-05-07 18:26 | 49.52664 | 2.40487 | 36057 ft | 425 kts | 316° |
| 2026-05-07 18:26 | 49.57117 | 2.34585 | 36048 ft | 425 kts | 316° |
| 2026-05-07 18:27 | 49.61607 | 2.28641 | 36046 ft | 425 kts | 316° |
| 2026-05-07 18:27 | 49.66094 | 2.22684 | 36050 ft | 425 kts | 316° |
| 2026-05-07 18:28 | 49.70573 | 2.16704 | 36047 ft | 426 kts | 316° |
| 2026-05-07 18:28 | 49.75044 | 2.10703 | 36055 ft | 426 kts | 316° |
| 2026-05-07 18:29 | 49.79517 | 2.04699 | 36051 ft | 426 kts | 316° |
| 2026-05-07 18:29 | 49.83993 | 1.98682 | 36047 ft | 426 kts | 316° |
| 2026-05-07 18:30 | 49.88463 | 1.92656 | 36047 ft | 426 kts | 316° |
| 2026-05-07 18:30 | 49.92933 | 1.86623 | 36046 ft | 426 kts | 316° |
| 2026-05-07 18:31 | 49.97397 | 1.80580 | 36063 ft | 426 kts | 316° |
| 2026-05-07 18:31 | 50.01856 | 1.74512 | 36057 ft | 426 kts | 316° |
| 2026-05-07 18:32 | 50.06310 | 1.68440 | 36051 ft | 426 kts | 316° |
| 2026-05-07 18:32 | 50.10740 | 1.62419 | 36049 ft | 426 kts | 316° |
| 2026-05-07 18:33 | 50.15217 | 1.56364 | 36049 ft | 426 kts | 316° |
| 2026-05-07 18:33 | 50.19688 | 1.50293 | 36060 ft | 426 kts | 316° |
| 2026-05-07 18:34 | 50.24146 | 1.44212 | 36054 ft | 426 kts | 316° |
| 2026-05-07 18:34 | 50.28603 | 1.38118 | 36055 ft | 425 kts | 316° |
| 2026-05-07 18:35 | 50.33056 | 1.32013 | 36058 ft | 425 kts | 316° |
| 2026-05-07 18:35 | 50.37504 | 1.25897 | 36055 ft | 426 kts | 316° |
| 2026-05-07 18:36 | 50.41949 | 1.19773 | 36057 ft | 425 kts | 315° |
| 2026-05-07 18:36 | 50.46384 | 1.13630 | 36056 ft | 425 kts | 315° |
| 2026-05-07 18:37 | 50.50820 | 1.07491 | 36059 ft | 425 kts | 315° |
| 2026-05-07 18:37 | 50.55362 | 1.01520 | 36059 ft | 426 kts | 319° |
| 2026-05-07 18:38 | 50.60063 | 0.95825 | 36059 ft | 426 kts | 320° |
| 2026-05-07 18:38 | 50.64764 | 0.90133 | 36078 ft | 426 kts | 319° |
| 2026-05-07 18:39 | 50.69426 | 0.84358 | 36074 ft | 426 kts | 319° |
| 2026-05-07 18:39 | 50.74033 | 0.78569 | 36070 ft | 426 kts | 318° |
| 2026-05-07 18:40 | 50.78668 | 0.72752 | 36066 ft | 426 kts | 319° |
| 2026-05-07 18:40 | 50.83313 | 0.66933 | 36064 ft | 426 kts | 318° |
| 2026-05-07 18:41 | 50.87948 | 0.61099 | 36037 ft | 426 kts | 318° |
| 2026-05-07 18:41 | 50.92581 | 0.55257 | 35985 ft | 425 kts | 318° |
| 2026-05-07 18:42 | 50.97209 | 0.49406 | 35937 ft | 425 kts | 318° |
| 2026-05-07 18:42 | 51.01859 | 0.43496 | 35896 ft | 425 kts | 318° |
| 2026-05-07 18:43 | 51.06446 | 0.37659 | 35851 ft | 425 kts | 318° |
| 2026-05-07 18:43 | 51.08761 | 0.34716 | 35589 ft | 428 kts | 318° |
| 2026-05-07 18:43 | 51.11108 | 0.31724 | 34648 ft | 436 kts | 318° |
| 2026-05-07 18:43 | 51.13461 | 0.28718 | 34195 ft | 430 kts | 318° |
| 2026-05-07 18:44 | 51.15784 | 0.25742 | 33645 ft | 427 kts | 318° |
| 2026-05-07 18:44 | 51.18085 | 0.22791 | 33126 ft | 422 kts | 318° |
| 2026-05-07 18:44 | 51.20361 | 0.19875 | 32639 ft | 417 kts | 318° |
| 2026-05-07 18:44 | 51.22608 | 0.16994 | 32158 ft | 413 kts | 318° |
| 2026-05-07 18:45 | 51.24836 | 0.14130 | 31680 ft | 409 kts | 318° |
| 2026-05-07 18:45 | 51.27036 | 0.11296 | 31221 ft | 405 kts | 318° |
| 2026-05-07 18:45 | 51.29219 | 0.08481 | 30765 ft | 401 kts | 317° |
| 2026-05-07 18:45 | 51.31219 | 0.05446 | 30328 ft | 393 kts | 307° |
| 2026-05-07 18:46 | 51.32791 | 0.01948 | 30034 ft | 382 kts | 297° |
| 2026-05-07 18:46 | 51.34656 | -0.05822 | 30056 ft | 373 kts | 283° |
| 2026-05-07 18:47 | 51.35999 | -0.13828 | 30059 ft | 373 kts | 283° |
| 2026-05-07 18:47 | 51.37342 | -0.21831 | 29884 ft | 372 kts | 283° |
| 2026-05-07 18:47 | 51.38021 | -0.25885 | 28778 ft | 383 kts | 283° |
| 2026-05-07 18:48 | 51.38710 | -0.30028 | 27984 ft | 386 kts | 283° |
| 2026-05-07 18:48 | 51.39398 | -0.34166 | 27514 ft | 381 kts | 283° |
| 2026-05-07 18:48 | 51.40069 | -0.38202 | 27257 ft | 370 kts | 283° |
| 2026-05-07 18:48 | 51.40714 | -0.42088 | 26993 ft | 362 kts | 283° |
| 2026-05-07 18:49 | 51.41352 | -0.45955 | 26743 ft | 357 kts | 283° |
| 2026-05-07 18:49 | 51.41990 | -0.49840 | 26486 ft | 355 kts | 282° |
| 2026-05-07 18:49 | 51.42616 | -0.53660 | 26229 ft | 354 kts | 282° |
| 2026-05-07 18:49 | 51.43230 | -0.57410 | 25982 ft | 353 kts | 282° |
| 2026-05-07 18:50 | 51.43852 | -0.61214 | 25729 ft | 351 kts | 282° |
| 2026-05-07 18:50 | 51.44467 | -0.64997 | 25477 ft | 350 kts | 282° |
| 2026-05-07 18:50 | 51.45077 | -0.68765 | 25225 ft | 349 kts | 282° |
| 2026-05-07 18:50 | 51.45690 | -0.72534 | 24975 ft | 348 kts | 282° |
| 2026-05-07 18:51 | 51.46300 | -0.76286 | 24726 ft | 347 kts | 282° |
| 2026-05-07 18:51 | 51.46905 | -0.80015 | 24477 ft | 346 kts | 282° |
| 2026-05-07 18:51 | 51.47508 | -0.83754 | 24227 ft | 345 kts | 282° |
| 2026-05-07 18:51 | 51.48107 | -0.87469 | 23980 ft | 344 kts | 282° |
| 2026-05-07 18:52 | 51.48510 | -0.89973 | 23815 ft | 343 kts | 282° |
| 2026-05-07 18:52 | 51.49296 | -0.94877 | 23450 ft | 342 kts | 282° |
| 2026-05-07 18:52 | 51.49884 | -0.98558 | 23196 ft | 341 kts | 282° |
| 2026-05-07 18:52 | 51.50471 | -1.02248 | 22955 ft | 340 kts | 282° |
| 2026-05-07 18:53 | 51.51055 | -1.05924 | 22702 ft | 339 kts | 282° |
| 2026-05-07 18:53 | 51.51634 | -1.09587 | 22461 ft | 338 kts | 282° |
| 2026-05-07 18:53 | 51.52212 | -1.13237 | 22219 ft | 337 kts | 282° |
| 2026-05-07 18:53 | 51.52782 | -1.16877 | 21976 ft | 335 kts | 281° |
| 2026-05-07 18:54 | 51.53123 | -1.19296 | 21730 ft | 335 kts | 280° |
| 2026-05-07 18:54 | 51.53577 | -1.22944 | 21373 ft | 332 kts | 278° |
| 2026-05-07 18:54 | 51.53993 | -1.26577 | 21006 ft | 329 kts | 278° |
| 2026-05-07 18:54 | 51.54394 | -1.30180 | 20594 ft | 327 kts | 278° |
| 2026-05-07 18:55 | 51.54793 | -1.33765 | 20189 ft | 325 kts | 278° |
| 2026-05-07 18:55 | 51.55195 | -1.37319 | 19794 ft | 323 kts | 278° |
| 2026-05-07 18:55 | 51.55604 | -1.40865 | 19406 ft | 321 kts | 278° |
| 2026-05-07 18:55 | 51.56016 | -1.44385 | 19023 ft | 320 kts | 278° |
| 2026-05-07 18:56 | 51.56425 | -1.47880 | 18659 ft | 318 kts | 278° |
| 2026-05-07 18:56 | 51.56832 | -1.51369 | 18295 ft | 316 kts | 278° |
| 2026-05-07 18:56 | 51.57233 | -1.54835 | 17886 ft | 315 kts | 278° |
| 2026-05-07 18:56 | 51.57631 | -1.58293 | 17491 ft | 313 kts | 278° |
| 2026-05-07 18:57 | 51.58027 | -1.61730 | 17106 ft | 312 kts | 278° |
| 2026-05-07 18:57 | 51.58421 | -1.65146 | 16731 ft | 310 kts | 278° |
| 2026-05-07 18:57 | 51.58757 | -1.68569 | 16364 ft | 309 kts | 276° |
| 2026-05-07 18:57 | 51.59022 | -1.71983 | 16005 ft | 307 kts | 274° |
| 2026-05-07 18:58 | 51.59256 | -1.75447 | 15209 ft | 319 kts | 274° |
| 2026-05-07 18:58 | 51.59492 | -1.79073 | 14421 ft | 329 kts | 274° |
| 2026-05-07 18:58 | 51.59737 | -1.82727 | 13551 ft | 329 kts | 274° |
| 2026-05-07 18:58 | 51.59907 | -1.86373 | 12676 ft | 324 kts | 266° |
| 2026-05-07 18:59 | 51.59569 | -1.89904 | 11881 ft | 317 kts | 252° |
| 2026-05-07 18:59 | 51.58700 | -1.93123 | 11097 ft | 312 kts | 238° |
| 2026-05-07 18:59 | 51.57521 | -1.96066 | 10571 ft | 313 kts | 236° |
| 2026-05-07 18:59 | 51.56359 | -1.98952 | 10414 ft | 302 kts | 237° |
| 2026-05-07 19:00 | 51.55245 | -2.01731 | 10288 ft | 290 kts | 237° |
| 2026-05-07 19:00 | 51.54172 | -2.04414 | 10155 ft | 280 kts | 237° |
| 2026-05-07 19:00 | 51.53134 | -2.07023 | 9886 ft | 275 kts | 238° |
| 2026-05-07 19:00 | 51.52321 | -2.09783 | 9523 ft | 273 kts | 250° |
| 2026-05-07 19:01 | 51.51695 | -2.12615 | 9110 ft | 272 kts | 250° |
| 2026-05-07 19:01 | 51.51053 | -2.15471 | 8722 ft | 271 kts | 249° |
| 2026-05-07 19:01 | 51.50411 | -2.18310 | 8322 ft | 271 kts | 249° |
| 2026-05-07 19:01 | 51.49771 | -2.21131 | 7889 ft | 267 kts | 249° |
| 2026-05-07 19:02 | 51.49136 | -2.23921 | 7215 ft | 266 kts | 249° |
| 2026-05-07 19:02 | 51.48504 | -2.26693 | 6578 ft | 264 kts | 249° |
| 2026-05-07 19:02 | 51.47872 | -2.29459 | 5857 ft | 264 kts | 249° |
| 2026-05-07 19:02 | 51.47122 | -2.32120 | 5169 ft | 261 kts | 238° |
| 2026-05-07 19:03 | 51.46152 | -2.34583 | 4481 ft | 260 kts | 236° |
| 2026-05-07 19:03 | 51.45173 | -2.36995 | 3862 ft | 256 kts | 236° |
| 2026-05-07 19:03 | 51.44202 | -2.39397 | 3326 ft | 256 kts | 235° |
| 2026-05-07 19:03 | 51.43261 | -2.41757 | 3168 ft | 245 kts | 236° |
| 2026-05-07 19:04 | 51.42370 | -2.44015 | 3024 ft | 234 kts | 235° |
| 2026-05-07 19:04 | 51.41518 | -2.46169 | 2900 ft | 224 kts | 236° |
| 2026-05-07 19:04 | 51.40699 | -2.48232 | 2780 ft | 215 kts | 235° |
| 2026-05-07 19:04 | 51.39909 | -2.50220 | 2636 ft | 208 kts | 235° |
| 2026-05-07 19:05 | 51.39181 | -2.52170 | 2547 ft | 201 kts | 245° |
| 2026-05-07 19:05 | 51.38935 | -2.54309 | 2529 ft | 189 kts | 264° |
| 2026-05-07 19:05 | 51.38860 | -2.56358 | 2377 ft | 181 kts | 262° |
| 2026-05-07 19:05 | 51.38785 | -2.58340 | 2164 ft | 177 kts | 263° |
| 2026-05-07 19:06 | 51.38711 | -2.60298 | 1936 ft | 176 kts | 263° |
| 2026-05-07 19:06 | 51.38571 | -2.64029 | 1492 ft | 155 kts | 262° |
| 2026-05-07 19:06 | 51.38508 | -2.65679 | 1268 ft | 143 kts | 264° |
| 2026-05-07 19:07 | 51.38450 | -2.67238 | 1076 ft | 138 kts | 267° |
| 2026-05-07 19:07 | 51.38388 | -2.68758 | 873 ft | 136 kts | 268° |
| 2026-05-07 19:07 | 51.38332 | -2.70267 | 695 ft | 136 kts | 269° |
| 2026-05-07 19:07 | 51.38276 | -2.71720 | 613 ft | 113 kts | 266° |
| 2026-05-07 19:08 | 51.38244 | -2.72492 | 624 ft | 26 kts | 266° |
| 2026-05-07 19:08 | 51.38235 | -2.72741 | 629 ft | 20 kts | 266° |
| 2026-05-07 19:08 | 51.38226 | -2.72985 | 623 ft | 24 kts | 266° |
| 2026-05-07 19:08 | 51.38215 | -2.73227 | 627 ft | 16 kts | 266° |
| 2026-05-07 19:09 | 51.38270 | -2.73341 | 622 ft | 14 kts | 348° |
| 2026-05-07 19:09 | 51.38367 | -2.73292 | 627 ft | 15 kts | 51° |
| 2026-05-07 19:09 | 51.38386 | -2.73135 | 615 ft | 14 kts | 86° |
| 2026-05-07 19:09 | 51.38392 | -2.72990 | 615 ft | 12 kts | 86° |
| 2026-05-07 19:10 | 51.38398 | -2.72862 | 620 ft | 11 kts | 86° |
| 2026-05-07 19:10 | 51.38402 | -2.72750 | 615 ft | 10 kts | 86° |
| 2026-05-07 19:10 | 51.38406 | -2.72651 | 624 ft | 8 kts | 86° |
| 2026-05-07 19:10 | 51.38410 | -2.72562 | 620 ft | 9 kts | 86° |
| 2026-05-07 19:11 | 51.38414 | -2.72427 | 615 ft | 15 kts | 87° |
| 2026-05-07 19:11 | 51.38422 | -2.72221 | 611 ft | 21 kts | 86° |
| 2026-05-07 19:11 | 51.38429 | -2.71969 | 606 ft | 25 kts | 90° |
| 2026-05-07 19:11 | 51.38434 | -2.71684 | 606 ft | 26 kts | 87° |
| 2026-05-07 19:12 | 51.38446 | -2.71395 | 619 ft | 25 kts | 87° |
| 2026-05-07 19:12 | 51.38455 | -2.71126 | 617 ft | 25 kts | 86° |
| 2026-05-07 19:12 | 51.38463 | -2.70939 | 614 ft | 11 kts | 86° |
| 2026-05-07 19:12 | 51.38471 | -2.70841 | 620 ft | 7 kts | 59° |
| 2026-05-07 19:13 | 51.38514 | -2.70831 | 611 ft | 4 kts | 355° |
| 2026-05-07 19:13 | 51.38537 | -2.70834 | 613 ft | 4 kts | 355° |
| 2026-05-07 19:13 | 51.38561 | -2.70842 | 608 ft | 4 kts | 330° |
| 2026-05-07 19:13 | 51.38565 | -2.70863 | 625 ft | 0 kts | 282° |
| 2026-05-07 19:14 | 51.38565 | -2.70888 | 610 ft | 2 kts | 266° |
| 2026-05-07 19:14 | 51.38565 | -2.70892 | 610 ft | 1 kts | 266° |
| 2026-05-07 19:14 | 51.38564 | -2.70905 | 621 ft | 1 kts | 266° |
| 2026-05-07 19:14 | 51.38564 | -2.70912 | 619 ft | 0 kts | 266° |